createdAt,value
2022-07-25T00:00:08.937Z,7.41
2022-07-25T00:01:15.073Z,6.64
2022-07-25T00:02:18.459Z,7.38
2022-07-25T00:03:33.851Z,8.75
2022-07-25T00:04:37.328Z,6.89
2022-07-25T00:05:40.311Z,6.64
2022-07-25T00:06:55.386Z,7.31
2022-07-25T00:07:58.244Z,6.83
2022-07-25T00:09:16.382Z,7.82
2022-07-25T00:10:22.222Z,7.07
2022-07-25T00:11:27.754Z,7.32
2022-07-25T00:12:33.196Z,6.09
2022-07-25T00:13:36.172Z,6.84
2022-07-25T00:14:39.148Z,6.23
2022-07-25T00:15:42.509Z,7.60
2022-07-25T00:16:57.386Z,6.35
2022-07-25T00:18:00.570Z,6.79
2022-07-25T00:19:03.557Z,7.72
2022-07-25T00:21:31.619Z,5.48
2022-07-25T00:22:37.359Z,5.54
2022-07-25T00:23:40.145Z,6.77
2022-07-25T00:24:43.126Z,7.24
2022-07-25T00:25:48.983Z,7.98
2022-07-25T00:26:51.950Z,12.84
2022-07-25T00:27:54.812Z,10.82
2022-07-25T00:28:57.477Z,4.85
2022-07-25T00:30:00.295Z,6.40
2022-07-25T00:31:02.971Z,7.65
2022-07-25T00:32:08.866Z,5.66
2022-07-25T00:33:11.845Z,5.62
2022-07-25T00:34:14.515Z,6.48
2022-07-25T00:35:20.563Z,8.49
2022-07-25T00:36:23.533Z,7.51
2022-07-25T00:37:26.422Z,8.82
2022-07-25T00:38:29.297Z,7.78
2022-07-25T00:39:31.968Z,8.42
2022-07-25T00:40:36.469Z,8.44
2022-07-25T00:41:39.652Z,7.10
2022-07-25T00:42:42.424Z,7.28
2022-07-25T00:43:45.094Z,8.13
2022-07-25T00:44:50.425Z,8.47
2022-07-25T00:45:53.403Z,11.25
2022-07-25T00:46:56.609Z,9.42
2022-07-25T00:47:59.569Z,13.22
2022-07-25T00:49:02.561Z,9.99
2022-07-25T00:50:05.413Z,9.85
2022-07-25T00:51:08.407Z,9.68
2022-07-25T00:52:11.276Z,8.97
2022-07-25T00:53:16.801Z,9.29
2022-07-25T00:54:19.471Z,8.33
2022-07-25T00:55:22.455Z,7.80
2022-07-25T00:56:25.324Z,7.95
2022-07-25T00:57:31.274Z,15.91
2022-07-25T00:58:33.941Z,10.71
2022-07-25T00:59:36.917Z,9.15
2022-07-25T01:00:42.449Z,9.53
2022-07-25T01:01:45.490Z,9.19
2022-07-25T01:02:48.503Z,7.99
2022-07-25T01:03:52.935Z,8.67
2022-07-25T01:04:55.898Z,11.54
2022-07-25T01:05:58.874Z,8.47
2022-07-25T01:07:01.869Z,11.23
2022-07-25T01:08:05.135Z,12.80
2022-07-25T01:09:08.218Z,8.11
2022-07-25T01:10:10.988Z,10.14
2022-07-25T01:11:13.964Z,10.63
2022-07-25T01:12:16.835Z,11.28
2022-07-25T01:13:20.831Z,9.85
2022-07-25T01:14:23.715Z,14.78
2022-07-25T01:15:26.816Z,10.48
2022-07-25T01:16:29.682Z,8.58
2022-07-25T01:17:32.543Z,8.72
2022-07-25T01:18:36.443Z,11.52
2022-07-25T01:19:39.318Z,10.91
2022-07-25T01:20:44.956Z,12.86
2022-07-25T01:21:47.628Z,12.51
2022-07-25T01:22:50.601Z,8.48
2022-07-25T01:23:53.580Z,7.44
2022-07-25T01:24:56.453Z,8.03
2022-07-25T01:25:59.437Z,8.86
2022-07-25T01:27:03.338Z,9.46
2022-07-25T01:28:06.203Z,7.33
2022-07-25T01:29:09.489Z,8.15
2022-07-25T01:30:12.463Z,9.16
2022-07-25T01:31:15.532Z,7.61
2022-07-25T01:32:21.488Z,8.22
2022-07-25T01:33:30.103Z,10.52
2022-07-25T01:34:32.989Z,8.24
2022-07-25T01:35:40.163Z,8.38
2022-07-25T01:36:40.469Z,9.74
2022-07-25T01:37:45.391Z,10.75
2022-07-25T01:38:47.859Z,8.65
2022-07-25T01:39:50.729Z,7.02
2022-07-25T01:40:53.705Z,7.82
2022-07-25T01:41:56.788Z,9.03
2022-07-25T01:42:59.771Z,7.35
2022-07-25T01:44:02.931Z,6.95
2022-07-25T01:45:06.030Z,6.71
2022-07-25T01:46:08.826Z,6.31
2022-07-25T01:47:11.673Z,8.08
2022-07-25T01:48:14.555Z,8.02
2022-07-25T01:49:17.369Z,13.83
2022-07-25T01:50:20.195Z,13.05
2022-07-25T01:51:23.089Z,7.22
2022-07-25T01:52:27.394Z,8.93
2022-07-25T01:53:30.150Z,9.84
2022-07-25T01:54:33.435Z,7.01
2022-07-25T01:55:36.616Z,7.44
2022-07-25T01:56:42.457Z,6.42
2022-07-25T01:57:49.710Z,5.81
2022-07-25T01:58:52.925Z,6.84
2022-07-25T01:59:55.895Z,6.92
2022-07-25T02:00:59.018Z,8.35
2022-07-25T02:02:02.096Z,6.82
2022-07-25T02:03:05.031Z,7.03
2022-07-25T02:04:08.522Z,6.08
2022-07-25T02:05:12.096Z,6.49
2022-07-25T02:06:15.203Z,7.26
2022-07-25T02:07:18.070Z,5.99
2022-07-25T02:08:20.944Z,9.40
2022-07-25T02:09:23.920Z,8.25
2022-07-25T02:10:26.898Z,6.88
2022-07-25T02:11:29.760Z,6.55
2022-07-25T02:12:32.543Z,9.22
2022-07-25T02:13:35.221Z,8.42
2022-07-25T02:14:40.546Z,8.26
2022-07-25T02:15:43.516Z,6.01
2022-07-25T02:16:49.141Z,6.57
2022-07-25T02:17:52.033Z,9.48
2022-07-25T02:18:55.213Z,9.10
2022-07-25T02:19:58.196Z,6.99
2022-07-25T02:21:01.062Z,6.83
2022-07-25T02:22:04.245Z,8.05
2022-07-25T02:23:07.540Z,7.54
2022-07-25T02:24:10.647Z,8.52
2022-07-25T02:25:13.692Z,6.38
2022-07-25T02:26:16.461Z,4.72
2022-07-25T02:27:19.443Z,5.18
2022-07-25T02:28:22.109Z,7.55
2022-07-25T02:29:24.986Z,6.98
2022-07-25T02:30:30.672Z,6.00
2022-07-25T02:31:33.396Z,6.73
2022-07-25T02:32:36.065Z,7.10
2022-07-25T02:33:41.712Z,6.71
2022-07-25T02:34:44.786Z,6.23
2022-07-25T02:35:47.759Z,7.08
2022-07-25T02:36:50.640Z,6.24
2022-07-25T02:37:53.916Z,3.98
2022-07-25T02:38:57.214Z,4.54
2022-07-25T02:40:00.191Z,4.47
2022-07-25T02:41:03.157Z,6.01
2022-07-25T02:42:06.029Z,3.36
2022-07-25T02:43:09.110Z,6.96
2022-07-25T02:44:12.084Z,7.21
2022-07-25T02:45:14.799Z,3.63
2022-07-25T02:46:17.733Z,3.23
2022-07-25T02:47:23.475Z,2.60
2022-07-25T02:48:26.442Z,2.66
2022-07-25T02:49:29.330Z,2.88
2022-07-25T02:50:37.839Z,2.06
2022-07-25T02:51:40.713Z,3.15
2022-07-25T02:52:43.892Z,2.98
2022-07-25T02:53:57.290Z,3.00
2022-07-25T02:54:51.300Z,4.59
2022-07-25T02:55:54.270Z,3.82
2022-07-25T02:56:58.877Z,4.97
2022-07-25T02:58:01.858Z,4.55
2022-07-25T02:59:04.822Z,4.94
2022-07-25T03:00:08.007Z,4.45
2022-07-25T03:01:11.083Z,5.26
2022-07-25T03:02:14.070Z,4.94
2022-07-25T03:03:16.735Z,3.75
2022-07-25T03:04:19.445Z,4.42
2022-07-25T03:05:22.591Z,4.15
2022-07-25T03:06:25.258Z,5.12
2022-07-25T03:07:28.439Z,4.38
2022-07-25T03:08:31.111Z,4.12
2022-07-25T03:09:33.985Z,5.38
2022-07-25T03:10:39.831Z,4.18
2022-07-25T03:11:42.699Z,5.08
2022-07-25T03:12:45.801Z,6.86
2022-07-25T03:13:48.770Z,9.57
2022-07-25T03:14:51.942Z,8.96
2022-07-25T03:15:54.811Z,9.93
2022-07-25T03:17:00.425Z,9.35
2022-07-25T03:18:03.443Z,12.17
2022-07-25T03:19:06.094Z,9.99
2022-07-25T03:20:09.195Z,8.32
2022-07-25T03:21:12.156Z,7.86
2022-07-25T03:22:15.233Z,9.42
2022-07-25T03:23:17.799Z,10.12
2022-07-25T03:24:20.579Z,12.87
2022-07-25T03:25:23.552Z,11.06
2022-07-25T03:26:26.221Z,8.75
2022-07-25T03:27:31.860Z,9.83
2022-07-25T03:28:34.631Z,8.02
2022-07-25T03:29:37.412Z,7.13
2022-07-25T03:30:40.194Z,8.38
2022-07-25T03:31:43.000Z,8.71
2022-07-25T03:32:48.385Z,9.82
2022-07-25T03:33:51.361Z,10.81
2022-07-25T03:34:54.337Z,13.10
2022-07-25T03:35:57.228Z,11.91
2022-07-25T03:37:00.108Z,13.89
2022-07-25T03:38:02.968Z,14.38
2022-07-25T03:39:08.404Z,12.42
2022-07-25T03:40:11.372Z,11.93
2022-07-25T03:41:14.249Z,11.57
2022-07-25T03:42:17.031Z,11.78
2022-07-25T03:43:19.788Z,11.02
2022-07-25T03:44:22.574Z,11.68
2022-07-25T03:45:28.184Z,11.12
2022-07-25T03:46:31.061Z,13.31
2022-07-25T03:47:39.579Z,15.03
2022-07-25T03:48:42.351Z,10.62
2022-07-25T03:49:45.233Z,11.38
2022-07-25T03:50:47.998Z,11.33
2022-07-25T03:51:51.489Z,8.06
2022-07-25T03:52:54.673Z,7.46
2022-07-25T03:53:57.458Z,7.72
2022-07-25T03:55:00.421Z,8.64
2022-07-25T03:56:03.608Z,9.10
2022-07-25T03:57:06.579Z,6.52
2022-07-25T03:58:09.768Z,5.90
2022-07-25T03:59:12.860Z,5.48
2022-07-25T04:00:16.030Z,5.41
2022-07-25T04:01:18.967Z,6.00
2022-07-25T04:02:22.157Z,7.18
2022-07-25T04:03:25.362Z,5.88
2022-07-25T04:04:28.146Z,5.55
2022-07-25T04:05:30.913Z,5.46
2022-07-25T04:06:37.059Z,6.16
2022-07-25T04:07:40.037Z,6.42
2022-07-25T04:08:43.114Z,7.02
2022-07-25T04:09:46.306Z,7.76
2022-07-25T04:10:49.394Z,6.89
2022-07-25T04:11:52.358Z,7.78
2022-07-25T04:12:55.332Z,5.98
2022-07-25T04:13:58.308Z,7.84
2022-07-25T04:15:01.281Z,5.27
2022-07-25T04:16:04.438Z,3.82
2022-07-25T04:17:08.348Z,4.59
2022-07-25T04:18:13.183Z,4.96
2022-07-25T04:19:17.196Z,5.62
2022-07-25T04:20:19.875Z,5.56
2022-07-25T04:21:22.725Z,6.52
2022-07-25T04:22:25.509Z,6.17
2022-07-25T04:23:28.281Z,5.35
2022-07-25T04:24:31.049Z,5.02
2022-07-25T04:25:33.830Z,5.15
2022-07-25T04:26:36.689Z,6.45
2022-07-25T04:27:39.571Z,6.60
2022-07-25T04:28:45.420Z,7.70
2022-07-25T04:29:48.182Z,7.93
2022-07-25T04:30:50.954Z,5.30
2022-07-25T04:31:54.023Z,5.55
2022-07-25T04:32:56.714Z,6.52
2022-07-25T04:33:59.503Z,6.47
2022-07-25T04:35:02.271Z,8.93
2022-07-25T04:36:05.127Z,9.61
2022-07-25T04:37:10.967Z,8.23
2022-07-25T04:38:14.049Z,5.08
2022-07-25T04:39:16.716Z,7.11
2022-07-25T04:40:19.493Z,6.50
2022-07-25T04:41:22.363Z,7.03
2022-07-25T04:42:25.147Z,12.92
2022-07-25T04:43:30.884Z,7.25
2022-07-25T04:44:33.674Z,8.29
2022-07-25T04:45:39.706Z,7.33
2022-07-25T04:46:42.686Z,7.03
2022-07-25T04:47:45.656Z,5.71
2022-07-25T04:48:48.746Z,6.71
2022-07-25T04:49:51.710Z,10.29
2022-07-25T04:50:54.790Z,7.52
2022-07-25T04:51:57.868Z,7.12
2022-07-25T04:53:00.740Z,9.12
2022-07-25T04:54:03.944Z,8.29
2022-07-25T04:55:07.232Z,7.22
2022-07-25T04:56:10.397Z,5.75
2022-07-25T04:57:13.383Z,7.84
2022-07-25T04:58:16.260Z,10.09
2022-07-25T04:59:22.084Z,9.64
2022-07-25T05:00:24.872Z,6.44
2022-07-25T05:01:27.897Z,5.40
2022-07-25T05:02:30.711Z,7.80
2022-07-25T05:03:33.587Z,7.34
2022-07-25T05:04:44.908Z,7.57
2022-07-25T05:05:44.359Z,8.21
2022-07-25T05:06:47.247Z,8.91
2022-07-25T05:07:50.525Z,7.04
2022-07-25T05:08:53.496Z,5.62
2022-07-25T05:09:56.365Z,7.61
2022-07-25T05:10:59.443Z,8.61
2022-07-25T05:12:05.301Z,9.93
2022-07-25T05:13:08.159Z,9.45
2022-07-25T05:14:11.142Z,9.42
2022-07-25T05:15:14.660Z,10.20
2022-07-25T05:16:17.471Z,12.64
2022-07-25T05:17:20.483Z,12.96
2022-07-25T05:18:23.575Z,8.31
2022-07-25T05:19:26.647Z,9.37
2022-07-25T05:20:29.430Z,6.61
2022-07-25T05:21:32.182Z,7.98
2022-07-25T05:22:35.175Z,10.32
2022-07-25T05:23:40.900Z,9.20
2022-07-25T05:24:43.976Z,9.01
2022-07-25T05:25:47.586Z,9.78
2022-07-25T05:26:50.455Z,9.14
2022-07-25T05:27:53.535Z,12.85
2022-07-25T05:28:56.809Z,10.00
2022-07-25T05:30:00.107Z,9.27
2022-07-25T05:31:03.187Z,13.22
2022-07-25T05:32:06.152Z,10.57
2022-07-25T05:33:08.921Z,12.42
2022-07-25T05:34:12.211Z,10.62
2022-07-25T05:35:15.080Z,10.65
2022-07-25T05:36:17.757Z,9.37
2022-07-25T05:37:21.042Z,9.63
2022-07-25T05:38:24.215Z,9.64
2022-07-25T05:39:27.308Z,9.87
2022-07-25T05:40:33.045Z,12.47
2022-07-25T05:41:35.809Z,9.26
2022-07-25T05:42:41.762Z,8.23
2022-07-25T05:43:44.747Z,8.23
2022-07-25T05:44:48.224Z,7.06
2022-07-25T05:45:51.342Z,9.85
2022-07-25T05:46:54.243Z,10.13
2022-07-25T05:47:57.690Z,9.45
2022-07-25T05:49:00.630Z,8.22
2022-07-25T05:50:03.525Z,9.25
2022-07-25T05:51:06.811Z,9.11
2022-07-25T05:52:13.096Z,9.09
2022-07-25T05:53:17.259Z,10.21
2022-07-25T05:54:20.139Z,8.93
2022-07-25T05:55:23.010Z,7.91
2022-07-25T05:56:25.801Z,8.48
2022-07-25T05:57:28.579Z,6.78
2022-07-25T05:58:31.644Z,9.41
2022-07-25T05:59:34.934Z,6.42
2022-07-25T06:00:37.998Z,9.19
2022-07-25T06:01:41.083Z,10.55
2022-07-25T06:02:44.199Z,8.53
2022-07-25T06:03:47.237Z,11.09
2022-07-25T06:04:50.112Z,10.65
2022-07-25T06:05:53.296Z,7.52
2022-07-25T06:06:56.482Z,7.35
2022-07-25T06:07:59.961Z,8.51
2022-07-25T06:09:02.937Z,7.12
2022-07-25T06:10:07.455Z,6.21
2022-07-25T06:11:10.328Z,7.80
2022-07-25T06:12:19.350Z,8.32
2022-07-25T06:13:22.525Z,5.57
2022-07-25T06:14:26.630Z,6.07
2022-07-25T06:15:30.333Z,4.25
2022-07-25T06:16:33.527Z,3.88
2022-07-25T06:17:36.381Z,4.92
2022-07-25T06:18:39.676Z,5.43
2022-07-25T06:19:42.846Z,4.67
2022-07-25T06:20:46.029Z,4.59
2022-07-25T06:21:49.006Z,6.35
2022-07-25T06:22:52.084Z,4.83
2022-07-25T06:23:55.063Z,5.42
2022-07-25T06:24:58.143Z,5.41
2022-07-25T06:26:01.431Z,3.89
2022-07-25T06:27:04.610Z,5.99
2022-07-25T06:28:07.689Z,4.55
2022-07-25T06:29:12.413Z,5.46
2022-07-25T06:30:20.031Z,5.26
2022-07-25T06:31:20.274Z,7.73
2022-07-25T06:32:23.083Z,7.65
2022-07-25T06:33:26.155Z,5.73
2022-07-25T06:34:29.153Z,6.84
2022-07-25T06:35:31.926Z,5.95
2022-07-25T06:36:34.676Z,6.91
2022-07-25T06:37:37.868Z,6.28
2022-07-25T06:38:41.148Z,10.25
2022-07-25T06:39:46.006Z,11.63
2022-07-25T06:40:48.841Z,17.84
2022-07-25T06:41:51.614Z,13.39
2022-07-25T06:42:54.806Z,7.83
2022-07-25T06:43:57.986Z,6.26
2022-07-25T06:45:01.264Z,6.42
2022-07-25T06:46:04.236Z,10.29
2022-07-25T06:47:07.414Z,10.15
2022-07-25T06:48:10.502Z,7.15
2022-07-25T06:49:13.689Z,7.98
2022-07-25T06:50:16.659Z,7.94
2022-07-25T06:51:19.537Z,7.52
2022-07-25T06:52:22.311Z,9.72
2022-07-25T06:53:25.182Z,8.08
2022-07-25T06:54:27.954Z,7.82
2022-07-25T06:55:30.726Z,8.25
2022-07-25T06:56:39.337Z,9.46
2022-07-25T06:57:42.209Z,7.39
2022-07-25T06:58:45.489Z,6.69
2022-07-25T06:59:48.467Z,8.91
2022-07-25T07:00:51.738Z,10.01
2022-07-25T07:01:54.831Z,10.22
2022-07-25T07:02:58.262Z,11.12
2022-07-25T07:04:01.407Z,8.61
2022-07-25T07:05:04.577Z,7.24
2022-07-25T07:06:07.557Z,11.24
2022-07-25T07:07:10.448Z,8.94
2022-07-25T07:08:16.488Z,11.15
2022-07-25T07:09:19.360Z,11.71
2022-07-25T07:10:22.127Z,11.90
2022-07-25T07:11:25.108Z,11.92
2022-07-25T07:12:27.987Z,11.85
2022-07-25T07:13:30.851Z,8.56
2022-07-25T07:14:33.730Z,9.58
2022-07-25T07:15:36.412Z,7.72
2022-07-25T07:16:40.751Z,11.25
2022-07-25T07:17:43.585Z,8.55
2022-07-25T07:18:49.615Z,8.39
2022-07-25T07:19:53.323Z,9.58
2022-07-25T07:20:56.203Z,10.39
2022-07-25T07:21:59.289Z,9.22
2022-07-25T07:23:02.363Z,8.83
2022-07-25T07:24:05.231Z,10.64
2022-07-25T07:25:09.649Z,10.73
2022-07-25T07:26:16.312Z,10.44
2022-07-25T07:27:19.304Z,9.03
2022-07-25T07:28:22.261Z,10.49
2022-07-25T07:29:25.137Z,11.98
2022-07-25T07:30:52.151Z,9.28
2022-07-25T07:31:44.533Z,10.93
2022-07-25T07:32:47.377Z,10.88
2022-07-25T07:33:50.150Z,11.39
2022-07-25T07:34:53.346Z,12.64
2022-07-25T07:35:56.103Z,11.64
2022-07-25T07:36:58.878Z,10.28
2022-07-25T07:38:01.649Z,12.81
2022-07-25T07:39:04.612Z,10.45
2022-07-25T07:40:07.709Z,9.72
2022-07-25T07:41:12.017Z,11.77
2022-07-25T07:42:14.781Z,9.56
2022-07-25T07:43:17.661Z,9.06
2022-07-25T07:44:20.442Z,10.28
2022-07-25T07:45:23.318Z,10.44
2022-07-25T07:46:26.035Z,9.21
2022-07-25T07:47:28.958Z,9.46
2022-07-25T07:48:31.952Z,11.53
2022-07-25T07:49:37.120Z,12.48
2022-07-25T07:50:39.011Z,9.71
2022-07-25T07:51:41.988Z,10.75
2022-07-25T07:52:45.065Z,10.86
2022-07-25T07:53:48.041Z,10.64
2022-07-25T07:54:51.019Z,11.77
2022-07-25T07:55:54.209Z,11.33
2022-07-25T07:56:57.187Z,12.08
2022-07-25T07:57:59.847Z,11.68
2022-07-25T07:59:03.387Z,10.05
2022-07-25T08:00:06.635Z,13.41
2022-07-25T08:01:09.403Z,11.18
2022-07-25T08:02:12.471Z,13.44
2022-07-25T08:03:15.415Z,11.35
2022-07-25T08:04:18.222Z,13.31
2022-07-25T08:05:21.300Z,11.54
2022-07-25T08:06:23.972Z,12.99
2022-07-25T08:07:27.052Z,14.36
2022-07-25T08:08:31.505Z,11.09
2022-07-25T08:09:34.030Z,12.00
2022-07-25T08:10:36.699Z,15.05
2022-07-25T08:11:39.472Z,14.61
2022-07-25T08:12:42.139Z,12.25
2022-07-25T08:13:45.114Z,15.60
2022-07-25T08:14:48.097Z,13.12
2022-07-25T08:15:51.191Z,11.82
2022-07-25T08:16:56.921Z,12.42
2022-07-25T08:17:59.892Z,16.14
2022-07-25T08:19:03.282Z,14.62
2022-07-25T08:20:27.919Z,12.31
2022-07-25T08:21:11.187Z,14.94
2022-07-25T08:22:14.369Z,17.91
2022-07-25T08:23:19.899Z,11.88
2022-07-25T08:24:22.569Z,13.28
2022-07-25T08:25:26.384Z,12.39
2022-07-25T08:26:29.034Z,11.00
2022-07-25T08:27:32.007Z,14.18
2022-07-25T08:28:34.884Z,16.27
2022-07-25T08:29:40.322Z,15.15
2022-07-25T08:30:43.403Z,16.05
2022-07-25T08:31:46.483Z,15.53
2022-07-25T08:32:49.354Z,14.14
2022-07-25T08:33:52.231Z,17.67
2022-07-25T08:34:55.204Z,17.72
2022-07-25T08:35:58.184Z,14.82
2022-07-25T08:37:01.260Z,18.56
2022-07-25T08:38:04.340Z,14.69
2022-07-25T08:39:07.215Z,22.93
2022-07-25T08:40:10.190Z,20.06
2022-07-25T08:41:13.474Z,16.22
2022-07-25T08:42:16.465Z,17.52
2022-07-25T08:43:22.508Z,18.02
2022-07-25T08:44:25.273Z,18.26
2022-07-25T08:45:28.353Z,17.19
2022-07-25T08:46:31.055Z,19.33
2022-07-25T08:47:33.691Z,19.56
2022-07-25T08:48:36.421Z,15.92
2022-07-25T08:49:39.143Z,18.95
2022-07-25T08:50:41.909Z,17.56
2022-07-25T08:51:44.782Z,19.82
2022-07-25T08:52:47.661Z,18.66
2022-07-25T08:53:56.469Z,18.48
2022-07-25T08:55:00.265Z,20.34
2022-07-25T08:56:08.133Z,19.66
2022-07-25T08:57:07.553Z,20.60
2022-07-25T08:58:10.324Z,24.84
2022-07-25T08:59:13.195Z,21.18
2022-07-25T09:00:15.973Z,21.44
2022-07-25T09:01:18.799Z,23.41
2022-07-25T09:02:21.723Z,24.01
2022-07-25T09:03:24.869Z,23.64
2022-07-25T09:04:27.574Z,23.04
2022-07-25T09:05:30.549Z,22.82
2022-07-25T09:06:33.438Z,24.40
2022-07-25T09:07:36.300Z,22.95
2022-07-25T09:08:39.075Z,22.71
2022-07-25T09:09:44.301Z,23.85
2022-07-25T09:10:47.191Z,22.57
2022-07-25T09:11:50.082Z,24.45
2022-07-25T09:12:53.024Z,25.10
2022-07-25T09:13:56.109Z,23.03
2022-07-25T09:15:04.408Z,25.05
2022-07-25T09:16:08.949Z,25.40
2022-07-25T09:17:22.628Z,21.29
2022-07-25T09:18:17.233Z,16.01
2022-07-25T09:19:20.107Z,21.37
2022-07-25T09:20:22.880Z,23.91
2022-07-25T09:21:25.857Z,21.28
2022-07-25T09:22:28.536Z,20.16
2022-07-25T09:23:31.393Z,20.56
2022-07-25T09:24:34.171Z,23.88
2022-07-25T09:25:36.846Z,24.75
2022-07-25T09:26:39.619Z,20.03
2022-07-25T09:27:42.921Z,20.62
2022-07-25T09:28:45.774Z,21.23
2022-07-25T09:29:48.853Z,23.63
2022-07-25T09:30:51.773Z,21.55
2022-07-25T09:31:57.158Z,20.21
2022-07-25T09:33:00.134Z,16.80
2022-07-25T09:34:03.375Z,17.42
2022-07-25T09:35:06.598Z,19.35
2022-07-25T09:36:09.480Z,17.93
2022-07-25T09:37:12.561Z,25.20
2022-07-25T09:38:15.428Z,20.02
2022-07-25T09:39:18.411Z,20.75
2022-07-25T09:40:21.282Z,21.91
2022-07-25T09:41:24.257Z,21.05
2022-07-25T09:42:26.944Z,20.37
2022-07-25T09:43:29.804Z,18.17
2022-07-25T09:44:32.675Z,21.70
2022-07-25T09:45:38.222Z,22.28
2022-07-25T09:46:41.226Z,19.93
2022-07-25T09:47:44.585Z,19.85
2022-07-25T09:48:47.542Z,23.97
2022-07-25T09:49:50.533Z,21.56
2022-07-25T09:50:53.515Z,18.12
2022-07-25T09:51:56.381Z,23.62
2022-07-25T09:52:59.152Z,22.08
2022-07-25T09:54:02.246Z,22.82
2022-07-25T09:55:07.667Z,24.40
2022-07-25T09:56:11.056Z,22.28
2022-07-25T09:57:14.031Z,25.37
2022-07-25T09:58:20.079Z,19.95
2022-07-25T09:59:22.957Z,19.80
2022-07-25T10:00:25.627Z,23.31
2022-07-25T10:01:28.753Z,21.49
2022-07-25T10:02:31.528Z,18.97
2022-07-25T10:03:34.257Z,17.67
2022-07-25T10:04:39.996Z,16.59
2022-07-25T10:05:42.768Z,18.19
2022-07-25T10:06:45.637Z,19.31
2022-07-25T10:07:54.558Z,17.79
2022-07-25T10:08:57.532Z,22.03
2022-07-25T10:10:00.408Z,18.26
2022-07-25T10:11:03.484Z,17.15
2022-07-25T10:12:06.469Z,18.18
2022-07-25T10:13:10.709Z,18.42
2022-07-25T10:14:14.160Z,17.03
2022-07-25T10:15:17.135Z,17.96
2022-07-25T10:16:20.095Z,15.66
2022-07-25T10:17:23.082Z,15.48
2022-07-25T10:18:25.762Z,19.31
2022-07-25T10:19:28.637Z,14.05
2022-07-25T10:20:31.408Z,17.12
2022-07-25T10:21:46.463Z,17.53
2022-07-25T10:22:57.854Z,14.90
2022-07-25T10:23:53.959Z,14.83
2022-07-25T10:24:56.844Z,19.05
2022-07-25T10:25:59.614Z,14.46
2022-07-25T10:27:02.268Z,17.91
2022-07-25T10:28:05.045Z,16.38
2022-07-25T10:29:07.715Z,13.28
2022-07-25T10:30:10.490Z,15.80
2022-07-25T10:31:13.425Z,15.55
2022-07-25T10:32:16.243Z,15.88
2022-07-25T10:33:19.017Z,14.69
2022-07-25T10:34:21.914Z,16.16
2022-07-25T10:35:24.862Z,16.74
2022-07-25T10:36:27.634Z,16.32
2022-07-25T10:37:30.613Z,14.26
2022-07-25T10:38:33.282Z,15.79
2022-07-25T10:39:36.058Z,17.20
2022-07-25T10:40:38.724Z,15.39
2022-07-25T10:41:41.388Z,16.50
2022-07-25T10:42:44.366Z,15.74
2022-07-25T10:43:48.919Z,16.47
2022-07-25T10:44:51.753Z,12.64
2022-07-25T10:45:54.778Z,11.58
2022-07-25T10:46:57.838Z,14.92
2022-07-25T10:48:00.903Z,13.09
2022-07-25T10:49:04.256Z,14.02
2022-07-25T10:50:22.046Z,12.75
2022-07-25T10:51:23.952Z,13.69
2022-07-25T10:52:26.726Z,13.90
2022-07-25T10:53:29.603Z,13.74
2022-07-25T10:54:32.270Z,12.36
2022-07-25T10:55:35.045Z,11.11
2022-07-25T10:56:37.710Z,12.34
2022-07-25T10:57:49.928Z,13.63
2022-07-25T10:58:45.016Z,12.71
2022-07-25T10:59:47.872Z,13.85
2022-07-25T11:00:50.839Z,14.65
2022-07-25T11:01:53.759Z,14.17
2022-07-25T11:02:56.790Z,15.06
2022-07-25T11:03:59.778Z,15.68
2022-07-25T11:05:02.757Z,15.14
2022-07-25T11:06:05.651Z,13.34
2022-07-25T11:07:08.511Z,14.94
2022-07-25T11:08:21.616Z,13.70
2022-07-25T11:09:18.480Z,14.21
2022-07-25T11:10:20.317Z,14.70
2022-07-25T11:11:23.219Z,15.47
2022-07-25T11:12:25.957Z,13.44
2022-07-25T11:13:28.726Z,15.31
2022-07-25T11:14:31.507Z,15.49
2022-07-25T11:15:37.153Z,15.03
2022-07-25T11:16:39.946Z,15.64
2022-07-25T11:17:42.782Z,14.59
2022-07-25T11:18:48.727Z,14.57
2022-07-25T11:19:51.809Z,15.49
2022-07-25T11:20:54.689Z,13.48
2022-07-25T11:21:57.668Z,12.52
2022-07-25T11:23:00.532Z,17.50
2022-07-25T11:24:03.410Z,16.77
2022-07-25T11:25:06.284Z,18.06
2022-07-25T11:26:09.265Z,18.86
2022-07-25T11:27:12.801Z,17.22
2022-07-25T11:28:15.829Z,14.41
2022-07-25T11:29:18.731Z,16.39
2022-07-25T11:30:21.677Z,14.08
2022-07-25T11:31:24.721Z,20.03
2022-07-25T11:32:27.428Z,14.87
2022-07-25T11:33:30.818Z,15.97
2022-07-25T11:34:33.775Z,16.10
2022-07-25T11:35:36.563Z,14.49
2022-07-25T11:36:39.335Z,15.65
2022-07-25T11:37:42.110Z,14.90
2022-07-25T11:38:45.090Z,13.62
2022-07-25T11:39:50.327Z,13.48
2022-07-25T11:40:53.291Z,13.99
2022-07-25T11:41:56.165Z,13.27
2022-07-25T11:42:59.040Z,11.05
2022-07-25T11:44:01.917Z,11.65
2022-07-25T11:45:10.730Z,14.14
2022-07-25T11:46:13.761Z,12.90
2022-07-25T11:47:16.689Z,13.04
2022-07-25T11:48:19.567Z,14.69
2022-07-25T11:49:22.537Z,15.28
2022-07-25T11:50:25.223Z,11.49
2022-07-25T11:51:27.876Z,13.66
2022-07-25T11:52:30.653Z,10.41
2022-07-25T11:53:33.313Z,13.82
2022-07-25T11:54:36.088Z,11.00
2022-07-25T11:55:38.863Z,9.58
2022-07-25T11:56:43.224Z,11.63
2022-07-25T11:57:45.942Z,12.91
2022-07-25T11:58:51.181Z,14.82
2022-07-25T11:59:53.947Z,13.37
2022-07-25T12:00:56.610Z,13.79
2022-07-25T12:01:59.333Z,11.78
2022-07-25T12:03:02.232Z,11.28
2022-07-25T12:04:07.698Z,14.47
2022-07-25T12:05:10.574Z,15.02
2022-07-25T12:06:13.240Z,16.82
2022-07-25T12:07:15.913Z,13.14
2022-07-25T12:08:18.692Z,15.15
2022-07-25T12:09:24.113Z,15.74
2022-07-25T12:10:26.785Z,16.30
2022-07-25T12:11:29.558Z,12.42
2022-07-25T12:12:34.990Z,14.20
2022-07-25T12:13:37.663Z,16.73
2022-07-25T12:14:40.434Z,14.21
2022-07-25T12:15:43.217Z,14.81
2022-07-25T12:16:46.181Z,14.50
2022-07-25T12:17:49.057Z,13.21
2022-07-25T12:18:52.037Z,13.95
2022-07-25T12:19:54.913Z,13.65
2022-07-25T12:20:57.889Z,13.43
2022-07-25T12:22:00.866Z,12.97
2022-07-25T12:23:03.770Z,16.34
2022-07-25T12:24:09.169Z,14.97
2022-07-25T12:25:12.149Z,13.03
2022-07-25T12:26:15.026Z,13.06
2022-07-25T12:27:20.565Z,15.32
2022-07-25T12:28:23.746Z,15.51
2022-07-25T12:29:26.619Z,16.27
2022-07-25T12:30:29.377Z,14.46
2022-07-25T12:31:32.333Z,13.81
2022-07-25T12:32:35.137Z,12.77
2022-07-25T12:33:40.474Z,11.65
2022-07-25T12:34:43.226Z,12.77
2022-07-25T12:35:46.115Z,12.05
2022-07-25T12:36:48.993Z,14.65
2022-07-25T12:37:51.866Z,12.18
2022-07-25T12:38:54.738Z,13.18
2022-07-25T12:39:57.510Z,13.78
2022-07-25T12:41:00.491Z,13.62
2022-07-25T12:42:03.467Z,13.08
2022-07-25T12:43:06.342Z,12.12
2022-07-25T12:44:12.287Z,11.81
2022-07-25T12:45:15.261Z,10.86
2022-07-25T12:46:18.174Z,9.88
2022-07-25T12:47:23.888Z,11.53
2022-07-25T12:48:26.493Z,11.68
2022-07-25T12:49:29.426Z,10.40
2022-07-25T12:50:32.098Z,9.42
2022-07-25T12:51:34.768Z,13.39
2022-07-25T12:52:37.541Z,11.94
2022-07-25T12:53:42.515Z,12.08
2022-07-25T12:54:47.793Z,10.34
2022-07-25T12:55:50.874Z,11.28
2022-07-25T12:56:53.746Z,11.98
2022-07-25T12:57:56.833Z,15.02
2022-07-25T12:58:59.705Z,13.15
2022-07-25T13:00:02.573Z,11.44
2022-07-25T13:01:05.337Z,10.92
2022-07-25T13:02:08.250Z,13.38
2022-07-25T13:03:11.206Z,12.51
2022-07-25T13:04:14.075Z,12.00
2022-07-25T13:05:16.952Z,10.55
2022-07-25T13:06:19.822Z,11.73
2022-07-25T13:07:22.903Z,14.77
2022-07-25T13:08:25.574Z,13.65
2022-07-25T13:09:28.448Z,11.08
2022-07-25T13:10:34.296Z,10.42
2022-07-25T13:11:37.065Z,10.17
2022-07-25T13:12:39.728Z,11.78
2022-07-25T13:13:42.502Z,9.93
2022-07-25T13:14:45.482Z,11.35
2022-07-25T13:15:51.122Z,13.17
2022-07-25T13:16:54.168Z,14.49
2022-07-25T13:17:57.079Z,11.05
2022-07-25T13:18:59.956Z,14.42
2022-07-25T13:20:03.950Z,10.98
2022-07-25T13:21:09.604Z,12.10
2022-07-25T13:22:12.670Z,14.54
2022-07-25T13:23:20.486Z,16.51
2022-07-25T13:24:19.854Z,14.52
2022-07-25T13:25:23.643Z,15.75
2022-07-25T13:26:26.425Z,12.52
2022-07-25T13:27:29.297Z,15.22
2022-07-25T13:28:31.964Z,13.22
2022-07-25T13:29:34.743Z,16.50
2022-07-25T13:30:37.618Z,13.35
2022-07-25T13:31:43.501Z,11.60
2022-07-25T13:32:46.738Z,13.52
2022-07-25T13:33:49.515Z,13.66
2022-07-25T13:34:52.185Z,12.19
2022-07-25T13:35:57.922Z,13.78
2022-07-25T13:37:00.589Z,13.64
2022-07-25T13:38:03.465Z,10.45
2022-07-25T13:39:06.653Z,12.88
2022-07-25T13:40:09.734Z,14.08
2022-07-25T13:41:12.602Z,11.47
2022-07-25T13:42:15.481Z,10.86
2022-07-25T13:43:18.456Z,11.12
2022-07-25T13:44:21.245Z,11.40
2022-07-25T13:45:24.080Z,11.75
2022-07-25T13:46:29.432Z,12.59
2022-07-25T13:47:32.313Z,8.13
2022-07-25T13:48:34.940Z,8.13
2022-07-25T13:49:40.517Z,9.32
2022-07-25T13:50:43.185Z,8.97